createdAt,value
2023-02-12T00:04:59.348Z,98094.47
2023-02-12T00:10:02.145Z,98116.38
2023-02-12T00:15:06.473Z,98129.75
2023-02-12T00:20:09.420Z,98104.81
2023-02-12T00:25:14.126Z,98192.81
2023-02-12T00:30:17.253Z,98173.84
2023-02-12T00:35:19.916Z,98189.50
2023-02-12T00:40:25.697Z,98203.66
2023-02-12T00:45:28.330Z,98210.19
2023-02-12T00:50:31.948Z,98219.31
2023-02-12T00:55:36.247Z,98244.78
2023-02-12T01:00:39.102Z,98260.81
2023-02-12T01:05:42.156Z,98237.44
2023-02-12T01:10:45.424Z,98284.03
2023-02-12T01:15:47.945Z,98309.03
2023-02-12T01:20:50.887Z,98319.66
2023-02-12T01:25:54.014Z,98341.72
2023-02-12T01:30:56.967Z,98339.84
2023-02-12T01:35:59.564Z,98324.69
2023-02-12T01:41:10.806Z,98373.28
2023-02-12T01:46:14.741Z,98403.78
2023-02-12T01:51:20.556Z,98422.34
2023-02-12T01:56:24.146Z,98383.63
2023-02-12T02:01:29.977Z,98454.31
2023-02-12T02:06:44.551Z,98453.44
2023-02-12T02:12:05.967Z,98445.38
2023-02-12T02:17:23.752Z,98476.03
2023-02-12T02:22:40.165Z,98486.13
2023-02-12T02:27:54.678Z,98498.19
2023-02-12T02:33:22.461Z,98526.75
2023-02-12T02:38:57.313Z,98547.91
2023-02-12T02:44:03.941Z,98546.16
2023-02-12T02:49:13.383Z,98530.31
2023-02-12T02:54:25.223Z,98580.50
2023-02-12T02:59:34.507Z,98581.81
2023-02-12T03:04:42.062Z,98610.31
2023-02-12T03:09:54.389Z,98620.22
2023-02-12T03:15:22.315Z,98643.56
2023-02-12T03:20:29.349Z,98656.22
2023-02-12T03:25:42.706Z,98656.75
2023-02-12T03:30:52.356Z,98674.31
2023-02-12T03:36:03.585Z,98698.00
2023-02-12T03:41:08.817Z,98693.66
2023-02-12T03:46:32.216Z,98697.47
2023-02-12T03:51:38.321Z,98730.44
2023-02-12T03:56:52.238Z,98734.84
2023-02-12T04:01:57.742Z,98713.88
2023-02-12T04:07:01.092Z,98763.38
2023-02-12T04:12:20.335Z,98766.84
2023-02-12T04:17:46.825Z,98817.94
2023-02-12T04:23:31.021Z,98810.22
2023-02-12T04:28:57.237Z,98817.69
2023-02-12T04:34:14.728Z,98828.91
2023-02-12T04:39:22.560Z,98843.09
2023-02-12T04:44:27.451Z,98842.53
2023-02-12T04:49:30.448Z,98876.50
2023-02-12T04:54:33.144Z,98888.22
2023-02-12T04:59:35.782Z,98873.53
2023-02-12T05:04:38.363Z,98893.31
2023-02-12T05:09:40.920Z,98920.91
2023-02-12T05:14:43.518Z,98908.03
2023-02-12T05:19:48.056Z,98944.03
2023-02-12T05:24:50.770Z,98954.00
2023-02-12T05:29:53.544Z,98949.78
2023-02-12T05:34:56.153Z,98954.16
2023-02-12T05:39:58.673Z,98978.94
2023-02-12T05:45:01.407Z,98995.72
2023-02-12T05:50:06.443Z,98992.16
2023-02-12T05:55:09.052Z,99000.72
2023-02-12T06:00:12.366Z,99020.31
2023-02-12T06:05:14.882Z,99030.22
2023-02-12T06:10:17.603Z,99046.25
2023-02-12T06:15:20.189Z,99064.88
2023-02-12T06:20:22.785Z,99073.44
2023-02-12T06:25:25.720Z,99101.41
2023-02-12T06:30:28.374Z,99115.47
2023-02-12T06:35:30.975Z,99113.63
2023-02-12T06:40:33.765Z,99140.00
2023-02-12T06:45:36.611Z,99135.09
2023-02-12T06:50:39.157Z,99119.97
2023-02-12T06:55:41.831Z,99153.34
2023-02-12T07:00:44.446Z,99148.81
2023-02-12T07:05:48.414Z,99185.03
2023-02-12T07:10:51.097Z,99222.78
2023-02-12T07:15:54.072Z,99204.81
2023-02-12T07:20:57.258Z,99206.09
2023-02-12T07:26:05.690Z,99200.84
2023-02-12T07:31:14.193Z,99208.38
2023-02-12T07:36:19.052Z,99231.56
2023-02-12T07:41:27.159Z,99233.81
2023-02-12T07:46:32.447Z,99263.34
2023-02-12T07:51:37.256Z,99279.25
2023-02-12T07:56:41.375Z,99240.44
2023-02-12T08:01:48.210Z,99252.56
2023-02-12T08:06:52.369Z,99242.16
2023-02-12T08:11:55.164Z,99285.91
2023-02-12T08:16:58.069Z,99317.38
2023-02-12T08:22:03.193Z,99281.75
2023-02-12T08:27:05.764Z,99343.63
2023-02-12T08:32:10.728Z,99314.38
2023-02-12T08:37:13.491Z,99321.91
2023-02-12T08:42:16.121Z,99347.72
2023-02-12T08:47:19.582Z,99343.38
2023-02-12T08:52:22.447Z,99347.31
2023-02-12T08:57:25.122Z,99341.69
2023-02-12T09:02:27.917Z,99337.25
2023-02-12T09:07:30.787Z,99343.00
2023-02-12T09:12:33.405Z,99352.09
2023-02-12T09:17:36.100Z,99346.91
2023-02-12T09:22:38.891Z,99387.91
2023-02-12T09:27:41.514Z,99365.63
2023-02-12T09:32:44.280Z,99404.06
2023-02-12T09:37:46.883Z,99391.38
2023-02-12T09:43:06.056Z,99396.25
2023-02-12T09:48:14.894Z,99376.75
2023-02-12T09:53:21.408Z,99397.81
2023-02-12T09:58:29.924Z,99387.47
2023-02-12T10:03:33.563Z,99399.78
2023-02-12T10:08:57.546Z,99409.88
2023-02-12T10:14:22.359Z,99391.84
2023-02-12T10:19:50.417Z,99414.97
2023-02-12T10:25:06.412Z,99424.66
2023-02-12T10:31:01.613Z,99430.50
2023-02-12T10:36:23.475Z,99432.72
2023-02-12T10:41:30.307Z,99464.97
2023-02-12T10:46:32.915Z,99458.66
2023-02-12T10:51:55.664Z,99482.88
2023-02-12T10:56:59.146Z,99484.53
2023-02-12T11:02:02.113Z,99498.41
2023-02-12T11:07:07.291Z,99495.38
2023-02-12T11:12:41.105Z,99507.63
2023-02-12T11:17:46.671Z,99526.22
2023-02-12T11:22:57.530Z,99528.25
2023-02-12T11:28:14.131Z,99530.56
2023-02-12T11:33:42.976Z,99528.66
2023-02-12T11:38:57.799Z,99547.19
2023-02-12T11:44:03.099Z,99566.34
2023-02-12T11:49:09.418Z,99566.22
2023-02-12T11:54:23.179Z,99588.19
2023-02-12T11:59:45.938Z,99576.47
2023-02-12T12:04:52.112Z,99599.63
2023-02-12T12:10:03.906Z,99636.91
2023-02-12T12:15:34.296Z,99634.78
2023-02-12T12:20:47.385Z,99629.25
2023-02-12T12:25:56.000Z,99646.53
2023-02-12T12:31:19.392Z,99652.19
2023-02-12T12:37:03.512Z,99658.25
2023-02-12T12:42:26.166Z,99654.63
2023-02-12T12:47:45.486Z,99666.41
2023-02-12T12:52:51.256Z,99690.44
2023-02-12T12:58:13.582Z,99680.97
2023-02-12T13:03:37.634Z,99694.41
2023-02-12T13:09:21.601Z,99692.69
2023-02-12T13:14:42.419Z,99704.75
2023-02-12T13:20:05.816Z,99706.50
2023-02-12T13:25:46.254Z,99700.50
2023-02-12T13:30:52.445Z,99711.34
2023-02-12T13:36:00.629Z,99712.56
2023-02-12T13:41:07.454Z,99725.22
2023-02-12T13:46:40.575Z,99722.25
2023-02-12T13:52:09.412Z,99750.66
2023-02-12T13:57:18.318Z,99722.31
2023-02-12T14:02:33.143Z,99744.94
2023-02-12T14:07:45.631Z,99717.00
2023-02-12T14:12:48.965Z,99729.06
2023-02-12T14:17:57.260Z,99749.81
2023-02-12T14:23:35.179Z,99767.84
2023-02-12T14:29:06.949Z,99780.94
2023-02-12T14:34:09.304Z,99786.19
2023-02-12T14:39:20.985Z,99805.94
2023-02-12T14:44:23.463Z,99793.91
2023-02-12T14:49:48.548Z,99778.22
2023-02-12T14:54:55.593Z,99831.25
2023-02-12T15:00:20.735Z,99836.13
2023-02-12T15:05:30.735Z,99846.00
2023-02-12T15:10:46.504Z,99848.94
2023-02-12T15:16:09.854Z,99863.91
2023-02-12T15:21:22.095Z,99798.47
2023-02-12T15:26:27.334Z,99841.91
2023-02-12T15:31:32.494Z,99861.94
2023-02-12T15:36:36.052Z,99837.09
2023-02-12T15:41:40.494Z,99856.91
2023-02-12T15:46:54.311Z,99857.28
2023-02-12T15:51:58.064Z,99872.00
2023-02-12T15:57:01.664Z,99867.88
2023-02-12T16:02:04.677Z,99879.72
2023-02-12T16:07:08.221Z,99892.94
2023-02-12T16:12:14.862Z,99865.31
2023-02-12T16:17:24.990Z,99907.16
2023-02-12T16:22:43.980Z,99906.22
2023-02-12T16:28:04.115Z,99904.28
2023-02-12T16:33:34.248Z,99914.91
2023-02-12T16:38:49.030Z,99915.41
2023-02-12T16:44:16.014Z,99916.47
2023-02-12T16:49:23.486Z,99912.66
2023-02-12T16:54:31.494Z,99921.78
2023-02-12T16:59:35.093Z,99926.41
2023-02-12T17:04:37.755Z,99930.81
2023-02-12T17:09:40.356Z,99917.84
2023-02-12T17:14:43.034Z,99935.25
2023-02-12T17:19:45.992Z,99924.34
2023-02-12T17:24:51.523Z,99901.13
2023-02-12T17:29:54.157Z,99910.22
2023-02-12T17:34:56.741Z,99928.03
2023-02-12T17:39:59.583Z,99938.19
2023-02-12T17:45:02.216Z,99921.47
2023-02-12T17:50:08.754Z,99937.06
2023-02-12T17:55:13.820Z,99918.53
2023-02-12T18:00:17.164Z,99926.09
2023-02-12T18:05:19.866Z,99926.41
2023-02-12T18:10:22.607Z,99923.00
2023-02-12T18:15:25.339Z,99922.19
2023-02-12T18:20:28.118Z,99924.31
2023-02-12T18:25:30.764Z,99934.94
2023-02-12T18:30:33.548Z,99909.91
2023-02-12T18:35:37.174Z,99938.81
2023-02-12T18:40:41.353Z,99940.56
2023-02-12T18:45:43.986Z,99940.06
2023-02-12T18:50:46.693Z,99953.81
2023-02-12T18:55:49.269Z,99958.78
2023-02-12T19:00:51.902Z,99942.59
2023-02-12T19:06:02.167Z,99949.38
2023-02-12T19:11:10.087Z,99959.72
2023-02-12T19:16:16.213Z,99951.63
2023-02-12T19:21:19.817Z,99955.13
2023-02-12T19:26:23.547Z,99960.03
2023-02-12T19:31:38.672Z,99973.03
2023-02-12T19:36:41.949Z,99970.13
2023-02-12T19:41:46.955Z,99951.63
2023-02-12T19:46:49.862Z,99935.25
2023-02-12T19:51:52.939Z,99947.00
2023-02-12T19:56:55.702Z,99928.00
2023-02-12T20:01:58.341Z,99901.44
2023-02-12T20:07:01.036Z,99916.22
2023-02-12T20:12:03.930Z,99922.59
2023-02-12T20:17:06.546Z,99901.72
2023-02-12T20:22:09.227Z,99922.41
2023-02-12T20:27:12.195Z,99916.03
2023-02-12T20:32:15.186Z,99913.03
2023-02-12T20:37:18.940Z,99909.00
2023-02-12T20:42:21.482Z,99904.91
2023-02-12T20:47:28.821Z,99901.66
2023-02-12T20:52:33.784Z,99898.84
2023-02-12T20:57:37.642Z,99903.00
2023-02-12T21:02:40.253Z,99895.38
2023-02-12T21:07:42.963Z,99892.16
2023-02-12T21:12:45.598Z,99906.69
2023-02-12T21:17:48.219Z,99905.72
2023-02-12T21:22:50.817Z,99903.28
2023-02-12T21:27:53.432Z,99852.34
2023-02-12T21:32:55.977Z,99896.91
2023-02-12T21:37:58.644Z,99889.88
2023-02-12T21:43:01.197Z,99896.56
2023-02-12T21:48:03.890Z,99876.41
2023-02-12T21:53:06.522Z,99847.97
2023-02-12T21:58:09.109Z,99870.81
2023-02-12T22:03:11.896Z,99841.69
2023-02-12T22:08:14.512Z,99851.97
2023-02-12T22:13:17.200Z,99858.22
2023-02-12T22:18:19.890Z,99860.84
2023-02-12T22:23:22.577Z,99842.94
2023-02-12T22:28:25.197Z,99854.53
2023-02-12T22:33:27.775Z,99855.78
2023-02-12T22:38:30.689Z,99849.44
2023-02-12T22:43:34.712Z,99848.03
2023-02-12T22:48:37.357Z,99853.66
2023-02-12T22:53:39.963Z,99770.56
2023-02-12T22:58:42.848Z,99832.31
2023-02-12T23:03:46.145Z,99822.56
2023-02-12T23:08:54.487Z,99834.72
2023-02-12T23:13:57.304Z,99823.81
2023-02-12T23:19:01.476Z,99827.38
2023-02-12T23:24:04.290Z,99805.03
2023-02-12T23:29:06.933Z,99730.09
2023-02-12T23:34:09.642Z,99774.56
2023-02-12T23:39:13.010Z,99795.50
2023-02-12T23:44:15.634Z,99789.38
2023-02-12T23:49:18.689Z,99774.63
2023-02-12T23:54:21.353Z,99777.59
2023-02-12T23:59:25.942Z,99766.59
